sensor_id;sensor_type;location;lat;lon;timestamp;pressure;altitude;pressure_sealevel;temperature;humidity
33163;BME280;29282;45.656;11.302;2022-11-20T00:01:25;97602.28;;;19.25;59.90
33163;BME280;29282;45.656;11.302;2022-11-20T00:03:53;97605.03;;;19.25;59.74
33163;BME280;29282;45.656;11.302;2022-11-20T00:06:19;97601.06;;;19.22;59.84
33163;BME280;29282;45.656;11.302;2022-11-20T00:08:46;97602.22;;;19.21;60.03
33163;BME280;29282;45.656;11.302;2022-11-20T00:11:14;97605.75;;;19.22;59.89
33163;BME280;29282;45.656;11.302;2022-11-20T00:13:40;97604.16;;;19.21;59.79
33163;BME280;29282;45.656;11.302;2022-11-20T00:16:08;97602.56;;;19.20;59.72
33163;BME280;29282;45.656;11.302;2022-11-20T00:18:35;97611.16;;;19.18;59.76
33163;BME280;29282;45.656;11.302;2022-11-20T00:21:05;97611.16;;;19.18;59.81
33163;BME280;29282;45.656;11.302;2022-11-20T00:23:31;97612.31;;;19.17;59.68
33163;BME280;29282;45.656;11.302;2022-11-20T00:26:01;97616.19;;;19.16;59.72
33163;BME280;29282;45.656;11.302;2022-11-20T00:28:27;97618.94;;;19.16;59.70
33163;BME280;29282;45.656;11.302;2022-11-20T00:31:02;97618.53;;;19.14;59.67
33163;BME280;29282;45.656;11.302;2022-11-20T00:33:28;97616.13;;;19.13;59.82
33163;BME280;29282;45.656;11.302;2022-11-20T00:36:08;97622.78;;;19.12;59.74
33163;BME280;29282;45.656;11.302;2022-11-20T00:38:34;97613.75;;;19.11;59.63
33163;BME280;29282;45.656;11.302;2022-11-20T00:41:03;97626.69;;;19.11;59.60
33163;BME280;29282;45.656;11.302;2022-11-20T00:43:29;97627.47;;;19.11;59.73
33163;BME280;29282;45.656;11.302;2022-11-20T00:46:02;97628.59;;;19.10;59.66
33163;BME280;29282;45.656;11.302;2022-11-20T00:48:28;97630.56;;;19.10;59.65
33163;BME280;29282;45.656;11.302;2022-11-20T00:50:54;97634.78;;;19.07;59.34
33163;BME280;29282;45.656;11.302;2022-11-20T00:53:21;97637.53;;;19.07;59.62
33163;BME280;29282;45.656;11.302;2022-11-20T00:55:57;97635.16;;;19.06;59.62
33163;BME280;29282;45.656;11.302;2022-11-20T00:58:28;97630.84;;;19.05;59.58
33163;BME280;29282;45.656;11.302;2022-11-20T01:00:59;97631.63;;;19.05;59.49
33163;BME280;29282;45.656;11.302;2022-11-20T01:03:26;97632.78;;;19.04;59.58
33163;BME280;29282;45.656;11.302;2022-11-20T01:05:51;97628.44;;;19.03;59.51
33163;BME280;29282;45.656;11.302;2022-11-20T01:08:17;97633.13;;;19.02;59.53
33163;BME280;29282;45.656;11.302;2022-11-20T01:10:42;97632.34;;;19.02;59.52
33163;BME280;29282;45.656;11.302;2022-11-20T01:13:08;97637.03;;;19.01;59.40
33163;BME280;29282;45.656;11.302;2022-11-20T01:15:51;97631.88;;;19.00;59.52
33163;BME280;29282;45.656;11.302;2022-11-20T01:18:17;97634.63;;;19.00;59.56
33163;BME280;29282;45.656;11.302;2022-11-20T01:20:42;97632.25;;;18.98;59.44
33163;BME280;29282;45.656;11.302;2022-11-20T01:23:08;97627.09;;;18.97;59.49
33163;BME280;29282;45.656;11.302;2022-11-20T01:25:34;97635.34;;;18.97;59.59
33163;BME280;29282;45.656;11.302;2022-11-20T01:28:02;97633.75;;;18.96;59.64
33163;BME280;29282;45.656;11.302;2022-11-20T01:30:28;97638.44;;;18.95;59.44
33163;BME280;29282;45.656;11.302;2022-11-20T01:32:55;97638.78;;;18.94;59.51
33163;BME280;29282;45.656;11.302;2022-11-20T01:35:20;97637.19;;;18.93;59.46
33163;BME280;29282;45.656;11.302;2022-11-20T01:37:50;97647.00;;;18.94;59.35
33163;BME280;29282;45.656;11.302;2022-11-20T01:40:15;97639.94;;;18.93;59.35
33163;BME280;29282;45.656;11.302;2022-11-20T01:42:46;97648.53;;;18.91;59.38
33163;BME280;29282;45.656;11.302;2022-11-20T01:48:15;97650.84;;;18.89;59.16
33163;BME280;29282;45.656;11.302;2022-11-20T01:50:42;97659.44;;;18.88;59.45
33163;BME280;29282;45.656;11.302;2022-11-20T01:53:13;97644.09;;;18.87;59.49
33163;BME280;29282;45.656;11.302;2022-11-20T01:55:44;97651.53;;;18.86;59.34
33163;BME280;29282;45.656;11.302;2022-11-20T01:58:12;97644.09;;;18.87;59.26
33163;BME280;29282;45.656;11.302;2022-11-20T02:00:38;97644.78;;;18.84;59.31
33163;BME280;29282;45.656;11.302;2022-11-20T02:03:13;97638.19;;;18.85;59.38
33163;BME280;29282;45.656;11.302;2022-11-20T02:05:45;97639.31;;;18.84;59.43
33163;BME280;29282;45.656;11.302;2022-11-20T02:08:13;97633.03;;;18.83;59.13
33163;BME280;29282;45.656;11.302;2022-11-20T02:10:39;97630.66;;;18.82;59.28
33163;BME280;29282;45.656;11.302;2022-11-20T02:13:05;97628.25;;;18.80;59.29
33163;BME280;29282;45.656;11.302;2022-11-20T02:15:49;97632.59;;;18.81;59.33
33163;BME280;29282;45.656;11.302;2022-11-20T02:18:17;97634.53;;;18.81;59.17
33163;BME280;29282;45.656;11.302;2022-11-20T02:20:47;97632.94;;;18.80;59.13
33163;BME280;29282;45.656;11.302;2022-11-20T02:23:38;97643.91;;;18.80;59.26
33163;BME280;29282;45.656;11.302;2022-11-20T02:26:11;97638.44;;;18.80;59.28
33163;BME280;29282;45.656;11.302;2022-11-20T02:28:38;97634.09;;;18.78;59.17
33163;BME280;29282;45.656;11.302;2022-11-20T02:31:04;97634.88;;;18.79;59.12
33163;BME280;29282;45.656;11.302;2022-11-20T02:33:30;97632.16;;;18.79;59.32
33163;BME280;29282;45.656;11.302;2022-11-20T02:35:55;97634.09;;;18.78;59.16
33163;BME280;29282;45.656;11.302;2022-11-20T02:38:21;97633.31;;;18.78;58.98
33163;BME280;29282;45.656;11.302;2022-11-20T02:40:47;97638.00;;;18.77;58.98
33163;BME280;29282;45.656;11.302;2022-11-20T02:43:12;97643.13;;;18.79;58.98
33163;BME280;29282;45.656;11.302;2022-11-20T02:45:37;97644.28;;;18.78;58.98
33163;BME280;29282;45.656;11.302;2022-11-20T02:48:03;97636.84;;;18.78;58.95
33163;BME280;29282;45.656;11.302;2022-11-20T02:50:29;97638.00;;;18.77;59.09
33163;BME280;29282;45.656;11.302;2022-11-20T02:52:54;97639.13;;;18.76;58.97
33163;BME280;29282;45.656;11.302;2022-11-20T02:55:20;97640.28;;;18.75;58.92
33163;BME280;29282;45.656;11.302;2022-11-20T02:57:45;97640.28;;;18.75;58.93
33163;BME280;29282;45.656;11.302;2022-11-20T03:00:11;97643.03;;;18.75;58.98
33163;BME280;29282;45.656;11.302;2022-11-20T03:02:37;97643.03;;;18.75;58.91
33163;BME280;29282;45.656;11.302;2022-11-20T03:05:03;97642.25;;;18.75;58.94
33163;BME280;29282;45.656;11.302;2022-11-20T03:07:28;97640.63;;;18.74;58.99
33163;BME280;29282;45.656;11.302;2022-11-20T03:09:54;97644.19;;;18.74;58.92
33163;BME280;29282;45.656;11.302;2022-11-20T03:12:19;97642.56;;;18.73;58.88
33163;BME280;29282;45.656;11.302;2022-11-20T03:14:45;97646.47;;;18.72;58.95
33163;BME280;29282;45.656;11.302;2022-11-20T03:17:10;97650.34;;;18.71;58.95
33163;BME280;29282;45.656;11.302;2022-11-20T03:19:36;97650.34;;;18.71;58.77
33163;BME280;29282;45.656;11.302;2022-11-20T03:22:01;97651.47;;;18.70;58.76
33163;BME280;29282;45.656;11.302;2022-11-20T03:24:27;97647.94;;;18.70;58.76
33163;BME280;29282;45.656;11.302;2022-11-20T03:26:52;97652.31;;;18.71;58.76
33163;BME280;29282;45.656;11.302;2022-11-20T03:29:18;97652.63;;;18.69;58.80
33163;BME280;29282;45.656;11.302;2022-11-20T03:31:43;97662.03;;;18.68;58.90
33163;BME280;29282;45.656;11.302;2022-11-20T03:34:10;97658.50;;;18.68;58.88
33163;BME280;29282;45.656;11.302;2022-11-20T03:36:40;97663.16;;;18.67;58.93
33163;BME280;29282;45.656;11.302;2022-11-20T03:39:06;97660.78;;;18.66;58.90
33163;BME280;29282;45.656;11.302;2022-11-20T03:41:36;97667.84;;;18.67;58.88
33163;BME280;29282;45.656;11.302;2022-11-20T03:44:04;97671.38;;;18.67;58.77
33163;BME280;29282;45.656;11.302;2022-11-20T03:46:30;97675.28;;;18.66;58.82
33163;BME280;29282;45.656;11.302;2022-11-20T03:48:57;97677.59;;;18.64;58.79
33163;BME280;29282;45.656;11.302;2022-11-20T03:51:24;97677.59;;;18.64;58.72
33163;BME280;29282;45.656;11.302;2022-11-20T03:53:52;97677.59;;;18.64;58.75
33163;BME280;29282;45.656;11.302;2022-11-20T03:56:20;97681.47;;;18.63;58.74
33163;BME280;29282;45.656;11.302;2022-11-20T03:58:47;97686.16;;;18.63;58.72
33163;BME280;29282;45.656;11.302;2022-11-20T04:01:15;97686.97;;;18.63;58.58
33163;BME280;29282;45.656;11.302;2022-11-20T04:03:42;97692.81;;;18.62;58.62
33163;BME280;29282;45.656;11.302;2022-11-20T04:06:20;97690.88;;;18.62;58.55
33163;BME280;29282;45.656;11.302;2022-11-20T04:08:46;97691.19;;;18.61;58.79
33163;BME280;29282;45.656;11.302;2022-11-20T04:13:42;97688.81;;;18.59;58.77
33163;BME280;29282;45.656;11.302;2022-11-20T04:16:09;97690.41;;;18.60;58.51
33163;BME280;29282;45.656;11.302;2022-11-20T04:18:35;97694.31;;;18.59;58.62
33163;BME280;29282;45.656;11.302;2022-11-20T04:21:01;97690.75;;;18.59;59.03
33163;BME280;29282;45.656;11.302;2022-11-20T04:23:27;97691.56;;;18.59;58.54
33163;BME280;29282;45.656;11.302;2022-11-20T04:25:53;97689.97;;;18.58;58.66
33163;BME280;29282;45.656;11.302;2022-11-20T04:28:19;97700.59;;;18.60;58.44
33163;BME280;29282;45.656;11.302;2022-11-20T04:30:44;97701.38;;;18.60;58.39
33163;BME280;29282;45.656;11.302;2022-11-20T04:33:10;97701.38;;;18.60;58.41
33163;BME280;29282;45.656;11.302;2022-11-20T04:35:36;97704.13;;;18.60;58.43
33163;BME280;29282;45.656;11.302;2022-11-20T04:38:03;97702.16;;;18.61;58.41
33163;BME280;29282;45.656;11.302;2022-11-20T04:40:31;97706.53;;;18.62;58.43
33163;BME280;29282;45.656;11.302;2022-11-20T04:42:57;97704.91;;;18.61;58.16
33163;BME280;29282;45.656;11.302;2022-11-20T04:45:22;97712.81;;;18.62;58.18
33163;BME280;29282;45.656;11.302;2022-11-20T04:47:49;97710.06;;;18.62;58.13
33163;BME280;29282;45.656;11.302;2022-11-20T04:50:14;97707.31;;;18.62;58.10
33163;BME280;29282;45.656;11.302;2022-11-20T04:52:40;97708.91;;;18.63;58.12
33163;BME280;29282;45.656;11.302;2022-11-20T04:55:06;97704.56;;;18.62;58.09
33163;BME280;29282;45.656;11.302;2022-11-20T04:57:32;97710.53;;;18.64;57.93
33163;BME280;29282;45.656;11.302;2022-11-20T04:59:57;97713.28;;;18.64;58.04
33163;BME280;29282;45.656;11.302;2022-11-20T05:02:23;97710.53;;;18.64;58.04
33163;BME280;29282;45.656;11.302;2022-11-20T05:04:48;97715.19;;;18.64;57.88
33163;BME280;29282;45.656;11.302;2022-11-20T05:07:14;97716.34;;;18.63;57.94
33163;BME280;29282;45.656;11.302;2022-11-20T05:09:39;97717.13;;;18.63;57.94
33163;BME280;29282;45.656;11.302;2022-11-20T05:12:07;97719.09;;;18.63;58.03
33163;BME280;29282;45.656;11.302;2022-11-20T05:14:33;97731.66;;;18.64;57.96
33163;BME280;29282;45.656;11.302;2022-11-20T05:16:59;97719.88;;;18.63;57.78
33163;BME280;29282;45.656;11.302;2022-11-20T05:19:24;97725.38;;;18.63;57.85
33163;BME280;29282;45.656;11.302;2022-11-20T05:21:50;97728.91;;;18.64;57.83
33163;BME280;29282;45.656;11.302;2022-11-20T05:24:15;97726.53;;;18.62;57.75
33163;BME280;29282;45.656;11.302;2022-11-20T05:26:41;97726.16;;;18.64;57.73
33163;BME280;29282;45.656;11.302;2022-11-20T05:29:06;97727.00;;;18.64;57.70
33163;BME280;29282;45.656;11.302;2022-11-20T05:31:32;97728.91;;;18.64;57.73
33163;BME280;29282;45.656;11.302;2022-11-20T05:33:57;97731.66;;;18.64;57.82
33163;BME280;29282;45.656;11.302;2022-11-20T05:36:23;97728.91;;;18.64;57.57
33163;BME280;29282;45.656;11.302;2022-11-20T05:38:49;97730.53;;;18.65;57.71
33163;BME280;29282;45.656;11.302;2022-11-20T05:41:16;97735.66;;;18.66;57.52
33163;BME280;29282;45.656;11.302;2022-11-20T05:43:44;97731.31;;;18.65;57.57
33163;BME280;29282;45.656;11.302;2022-11-20T05:46:12;97735.66;;;18.66;57.53
33163;BME280;29282;45.656;11.302;2022-11-20T05:48:39;97735.66;;;18.66;57.53
33163;BME280;29282;45.656;11.302;2022-11-20T05:51:07;97736.81;;;18.65;57.59
33163;BME280;29282;45.656;11.302;2022-11-20T05:53:33;97737.59;;;18.66;57.53
33163;BME280;29282;45.656;11.302;2022-11-20T05:56:05;97742.28;;;18.65;57.42
33163;BME280;29282;45.656;11.302;2022-11-20T05:58:31;97737.25;;;18.67;57.50
33163;BME280;29282;45.656;11.302;2022-11-20T06:01:24;97737.25;;;18.67;57.50
33163;BME280;29282;45.656;11.302;2022-11-20T06:03:50;97741.94;;;18.67;57.45
33163;BME280;29282;45.656;11.302;2022-11-20T06:06:20;97744.69;;;18.67;57.52
33163;BME280;29282;45.656;11.302;2022-11-20T06:08:47;97746.63;;;18.66;57.37
33163;BME280;29282;45.656;11.302;2022-11-20T06:11:13;97750.16;;;18.67;57.38
33163;BME280;29282;45.656;11.302;2022-11-20T06:13:39;97751.31;;;18.66;57.37
33163;BME280;29282;45.656;11.302;2022-11-20T06:16:05;97755.22;;;18.65;57.33
33163;BME280;29282;45.656;11.302;2022-11-20T06:18:31;97761.50;;;18.65;57.31
33163;BME280;29282;45.656;11.302;2022-11-20T06:21:05;97754.44;;;18.64;57.51
33163;BME280;29282;45.656;11.302;2022-11-20T06:23:31;97761.84;;;18.64;57.48
33163;BME280;29282;45.656;11.302;2022-11-20T06:26:01;97761.84;;;18.64;57.15
33163;BME280;29282;45.656;11.302;2022-11-20T06:28:26;97764.56;;;18.64;57.29
33163;BME280;29282;45.656;11.302;2022-11-20T06:30:52;97765.72;;;18.63;57.27
33163;BME280;29282;45.656;11.302;2022-11-20T06:33:17;97767.69;;;18.62;57.25
33163;BME280;29282;45.656;11.302;2022-11-20T06:35:43;97765.72;;;18.63;57.26
33163;BME280;29282;45.656;11.302;2022-11-20T06:38:08;97765.72;;;18.63;57.25
33163;BME280;29282;45.656;11.302;2022-11-20T06:40:34;97775.91;;;18.62;57.19
33163;BME280;29282;45.656;11.302;2022-11-20T06:42:59;97776.72;;;18.63;57.19
33163;BME280;29282;45.656;11.302;2022-11-20T06:45:25;97773.16;;;18.62;57.06
33163;BME280;29282;45.656;11.302;2022-11-20T06:47:50;97778.66;;;18.62;57.08
33163;BME280;29282;45.656;11.302;2022-11-20T06:50:16;97782.66;;;18.65;57.17
33163;BME280;29282;45.656;11.302;2022-11-20T06:52:41;97782.19;;;18.63;57.18
33163;BME280;29282;45.656;11.302;2022-11-20T06:55:07;97788.16;;;18.65;57.05
33163;BME280;29282;45.656;11.302;2022-11-20T06:57:33;97785.72;;;18.63;57.06
33163;BME280;29282;45.656;11.302;2022-11-20T06:59:58;97790.09;;;18.64;57.16
33163;BME280;29282;45.656;11.302;2022-11-20T07:02:23;97792.84;;;18.64;56.98
33163;BME280;29282;45.656;11.302;2022-11-20T07:04:49;97792.84;;;18.64;57.04
33163;BME280;29282;45.656;11.302;2022-11-20T07:07:14;97796.38;;;18.65;57.14
33163;BME280;29282;45.656;11.302;2022-11-20T07:09:40;97787.88;;;18.70;56.62
33163;BME280;29282;45.656;11.302;2022-11-20T07:12:05;97796.72;;;18.75;56.56
33163;BME280;29282;45.656;11.302;2022-11-20T07:14:31;97795.56;;;18.76;56.61
33163;BME280;29282;45.656;11.302;2022-11-20T07:16:56;97798.41;;;18.80;56.40
33163;BME280;29282;45.656;11.302;2022-11-20T07:19:22;97796.66;;;18.88;56.37
33163;BME280;29282;45.656;11.302;2022-11-20T07:21:47;97799.25;;;18.96;56.05
33163;BME280;29282;45.656;11.302;2022-11-20T07:24:13;97803.72;;;19.01;56.01
33163;BME280;29282;45.656;11.302;2022-11-20T07:26:38;97804.59;;;19.05;55.92
33163;BME280;29282;45.656;11.302;2022-11-20T07:29:04;97803.44;;;19.06;55.83
33163;BME280;29282;45.656;11.302;2022-11-20T07:31:30;97804.22;;;19.07;55.85
33163;BME280;29282;45.656;11.302;2022-11-20T07:33:56;97806.19;;;19.06;55.86
33163;BME280;29282;45.656;11.302;2022-11-20T07:36:22;97815.69;;;19.09;55.83
33163;BME280;29282;45.656;11.302;2022-11-20T07:38:47;97808.94;;;19.06;55.90
33163;BME280;29282;45.656;11.302;2022-11-20T07:41:13;97805.84;;;19.08;55.78
33163;BME280;29282;45.656;11.302;2022-11-20T07:43:38;97805.84;;;19.08;55.74
33163;BME280;29282;45.656;11.302;2022-11-20T07:46:04;97807.78;;;19.07;55.84
33163;BME280;29282;45.656;11.302;2022-11-20T07:48:29;97810.53;;;19.07;55.73
33163;BME280;29282;45.656;11.302;2022-11-20T07:50:56;97805.03;;;19.07;55.74
33163;BME280;29282;45.656;11.302;2022-11-20T07:53:22;97796.78;;;19.07;55.66
33163;BME280;29282;45.656;11.302;2022-11-20T07:55:48;97808.69;;;19.11;55.66
33163;BME280;29282;45.656;11.302;2022-11-20T07:58:15;97807.16;;;19.14;55.58
33163;BME280;29282;45.656;11.302;2022-11-20T08:00:41;97810.13;;;19.21;55.35
33163;BME280;29282;45.656;11.302;2022-11-20T08:03:07;97807.66;;;19.32;55.24
33163;BME280;29282;45.656;11.302;2022-11-20T08:05:33;97812.63;;;19.42;54.95
33163;BME280;29282;45.656;11.302;2022-11-20T08:07:58;97815.22;;;19.51;54.77
33163;BME280;29282;45.656;11.302;2022-11-20T08:10:24;97807.59;;;19.60;54.61
33163;BME280;29282;45.656;11.302;2022-11-20T08:12:51;97816.88;;;19.67;54.43
33163;BME280;29282;45.656;11.302;2022-11-20T08:15:37;97814.53;;;19.69;54.42
33163;BME280;29282;45.656;11.302;2022-11-20T08:20:30;97814.53;;;19.69;54.50
33163;BME280;29282;45.656;11.302;2022-11-20T08:22:59;97814.53;;;19.69;54.48
33163;BME280;29282;45.656;11.302;2022-11-20T08:25:26;97819.34;;;19.73;54.34
33163;BME280;29282;45.656;11.302;2022-11-20T08:27:52;97821.75;;;19.74;54.05
33163;BME280;29282;45.656;11.302;2022-11-20T08:30:18;97816.34;;;19.78;54.11
33163;BME280;29282;45.656;11.302;2022-11-20T08:32:43;97822.25;;;19.80;54.06
33163;BME280;29282;45.656;11.302;2022-11-20T08:35:09;97828.22;;;19.82;53.97
33163;BME280;29282;45.656;11.302;2022-11-20T08:37:34;97824.66;;;19.81;54.09
33163;BME280;29282;45.656;11.302;2022-11-20T08:40:03;97836.91;;;19.84;54.22
33163;BME280;29282;45.656;11.302;2022-11-20T08:42:28;97827.13;;;19.86;54.18
33163;BME280;29282;45.656;11.302;2022-11-20T08:44:54;97826.78;;;19.88;54.03
33163;BME280;29282;45.656;11.302;2022-11-20T08:47:19;97836.72;;;19.92;54.02
33163;BME280;29282;45.656;11.302;2022-11-20T08:49:45;97839.13;;;19.94;54.26
33163;BME280;29282;45.656;11.302;2022-11-20T08:52:10;97843.00;;;19.93;54.20
33163;BME280;29282;45.656;11.302;2022-11-20T08:54:36;97828.13;;;19.94;54.26
33163;BME280;29282;45.656;11.302;2022-11-20T08:57:02;97824.22;;;19.95;54.05
33163;BME280;29282;45.656;11.302;2022-11-20T08:59:27;97834.06;;;19.96;54.22
33163;BME280;29282;45.656;11.302;2022-11-20T09:01:53;97827.75;;;19.95;54.07
33163;BME280;29282;45.656;11.302;2022-11-20T09:04:18;97833.97;;;19.92;53.99
33163;BME280;29282;45.656;11.302;2022-11-20T09:06:44;97829.25;;;19.93;54.12
33163;BME280;29282;45.656;11.302;2022-11-20T09:09:09;97831.22;;;19.92;54.29
33163;BME280;29282;45.656;11.302;2022-11-20T09:11:35;97830.78;;;19.90;54.34
33163;BME280;29282;45.656;11.302;2022-11-20T09:14:01;97835.47;;;19.90;54.24
33163;BME280;29282;45.656;11.302;2022-11-20T09:16:28;97838.59;;;19.88;54.49
33163;BME280;29282;45.656;11.302;2022-11-20T09:18:53;97831.50;;;19.87;54.41
33163;BME280;29282;45.656;11.302;2022-11-20T09:21:18;97834.69;;;19.89;54.40
33163;BME280;29282;45.656;11.302;2022-11-20T09:23:44;97844.88;;;19.89;54.33
33163;BME280;29282;45.656;11.302;2022-11-20T09:26:13;97840.53;;;19.88;54.62
33163;BME280;29282;45.656;11.302;2022-11-20T09:28:39;97846.84;;;19.88;54.54
33163;BME280;29282;45.656;11.302;2022-11-20T09:31:07;97855.44;;;19.87;54.47
33163;BME280;29282;45.656;11.302;2022-11-20T09:33:33;97854.63;;;19.86;54.73
33163;BME280;29282;45.656;11.302;2022-11-20T09:35:58;97853.50;;;19.87;54.60
33163;BME280;29282;45.656;11.302;2022-11-20T09:38:24;97852.34;;;19.88;54.80
33163;BME280;29282;45.656;11.302;2022-11-20T09:40:57;97852.34;;;19.88;54.72
33163;BME280;29282;45.656;11.302;2022-11-20T09:46:49;97858.19;;;19.87;54.85
33163;BME280;29282;45.656;11.302;2022-11-20T09:54:17;97846.38;;;19.86;54.86
33163;BME280;29282;45.656;11.302;2022-11-20T09:56:50;97840.78;;;19.83;54.84
33163;BME280;29282;45.656;11.302;2022-11-20T09:59:27;97844.69;;;19.82;54.76
33163;BME280;29282;45.656;11.302;2022-11-20T10:01:55;97848.63;;;19.81;54.39
33163;BME280;29282;45.656;11.302;2022-11-20T10:04:21;97850.13;;;19.78;54.21
33163;BME280;29282;45.656;11.302;2022-11-20T10:06:56;97846.19;;;19.79;53.99
33163;BME280;29282;45.656;11.302;2022-11-20T10:09:53;97846.75;;;19.85;53.53
33163;BME280;29282;45.656;11.302;2022-11-20T10:15:42;97843.81;;;19.78;53.87
33163;BME280;29282;45.656;11.302;2022-11-20T10:18:22;97835.75;;;19.85;53.61
33163;BME280;29282;45.656;11.302;2022-11-20T10:21:03;97835.13;;;19.76;54.07
33163;BME280;29282;45.656;11.302;2022-11-20T10:29:33;97833.53;;;19.75;53.08
33163;BME280;29282;45.656;11.302;2022-11-20T10:32:11;97828.28;;;19.69;53.29
33163;BME280;29282;45.656;11.302;2022-11-20T10:34:59;97833.88;;;19.73;53.17
33163;BME280;29282;45.656;11.302;2022-11-20T10:37:27;97831.13;;;19.73;53.26
33163;BME280;29282;45.656;11.302;2022-11-20T10:42:31;97831.50;;;19.71;53.57
33163;BME280;29282;45.656;11.302;2022-11-20T10:45:11;97831.03;;;19.69;53.65
33163;BME280;29282;45.656;11.302;2022-11-20T10:47:40;97827.50;;;19.69;53.77
33163;BME280;29282;45.656;11.302;2022-11-20T10:50:11;97827.06;;;19.67;54.15
33163;BME280;29282;45.656;11.302;2022-11-20T10:58:38;97824.66;;;19.65;54.07
33163;BME280;29282;45.656;11.302;2022-11-20T11:01:19;97819.16;;;19.65;53.90
33163;BME280;29282;45.656;11.302;2022-11-20T11:03:49;97822.69;;;19.66;54.13
33163;BME280;29282;45.656;11.302;2022-11-20T11:09:03;97817.75;;;19.71;53.84
33163;BME280;29282;45.656;11.302;2022-11-20T11:11:34;97806.75;;;19.71;53.69
33163;BME280;29282;45.656;11.302;2022-11-20T11:14:07;97809.13;;;19.73;53.72
33163;BME280;29282;45.656;11.302;2022-11-20T11:16:33;97805.16;;;19.70;53.88
33163;BME280;29282;45.656;11.302;2022-11-20T11:19:25;97809.75;;;19.66;54.04
33163;BME280;29282;45.656;11.302;2022-11-20T11:21:55;97808.63;;;19.67;53.92
33163;BME280;29282;45.656;11.302;2022-11-20T11:24:26;97798.84;;;19.70;53.86
33163;BME280;29282;45.656;11.302;2022-11-20T11:26:57;97801.97;;;19.68;53.83
33163;BME280;29282;45.656;11.302;2022-11-20T11:29:23;97796.00;;;19.66;54.08
33163;BME280;29282;45.656;11.302;2022-11-20T11:32:03;97790.09;;;19.64;54.24
33163;BME280;29282;45.656;11.302;2022-11-20T11:34:29;97792.84;;;19.64;54.05
33163;BME280;29282;45.656;11.302;2022-11-20T11:36:58;97794.78;;;19.64;54.24
33163;BME280;29282;45.656;11.302;2022-11-20T11:39:27;97784.59;;;19.64;54.12
33163;BME280;29282;45.656;11.302;2022-11-20T11:41:53;97789.59;;;19.62;54.36
33163;BME280;29282;45.656;11.302;2022-11-20T11:44:37;97788.03;;;19.61;54.21
33163;BME280;29282;45.656;11.302;2022-11-20T11:47:34;97792.34;;;19.62;54.31
33163;BME280;29282;45.656;11.302;2022-11-20T11:50:27;97783.69;;;19.60;54.33
33163;BME280;29282;45.656;11.302;2022-11-20T11:55:38;97779.31;;;19.59;54.67
33163;BME280;29282;45.656;11.302;2022-11-20T12:01:15;97785.53;;;19.56;54.43
33163;BME280;29282;45.656;11.302;2022-11-20T12:04:04;97781.19;;;19.55;54.42
33163;BME280;29282;45.656;11.302;2022-11-20T12:06:32;97780.41;;;19.55;54.58
33163;BME280;29282;45.656;11.302;2022-11-20T12:09:02;97780.72;;;19.53;54.54
33163;BME280;29282;45.656;11.302;2022-11-20T12:11:34;97784.31;;;19.54;54.48
33163;BME280;29282;45.656;11.302;2022-11-20T12:14:22;97783.47;;;19.53;54.64
33163;BME280;29282;45.656;11.302;2022-11-20T12:16:53;97788.97;;;19.53;54.56
33163;BME280;29282;45.656;11.302;2022-11-20T12:19:21;97782.69;;;19.53;54.68
33163;BME280;29282;45.656;11.302;2022-11-20T12:22:16;97778.34;;;19.52;54.78
33163;BME280;29282;45.656;11.302;2022-11-20T12:28:00;97779.50;;;19.51;54.67
33163;BME280;29282;45.656;11.302;2022-11-20T12:30:27;97775.94;;;19.50;54.61
33163;BME280;29282;45.656;11.302;2022-11-20T12:33:12;97777.91;;;19.49;54.64
33163;BME280;29282;45.656;11.302;2022-11-20T12:35:57;97771.97;;;19.47;54.94
33163;BME280;29282;45.656;11.302;2022-11-20T13:01:50;97763.19;;;19.42;55.08
33163;BME280;29282;45.656;11.302;2022-11-20T13:07:20;97765.84;;;19.38;55.27
33163;BME280;29282;45.656;11.302;2022-11-20T13:09:50;97763.09;;;19.38;55.41
33163;BME280;29282;45.656;11.302;2022-11-20T13:12:27;97765.41;;;19.36;55.22
33163;BME280;29282;45.656;11.302;2022-11-20T13:18:06;97774.78;;;19.35;55.49
33163;BME280;29282;45.656;11.302;2022-11-20T13:20:34;97773.22;;;19.34;55.48
33163;BME280;29282;45.656;11.302;2022-11-20T13:23:00;97775.16;;;19.34;55.44
33163;BME280;29282;45.656;11.302;2022-11-20T13:25:29;97772.75;;;19.32;55.37
33163;BME280;29282;45.656;11.302;2022-11-20T13:27:57;97776.28;;;19.33;55.46
33163;BME280;29282;45.656;11.302;2022-11-20T13:30:26;97776.28;;;19.33;55.54
33163;BME280;29282;45.656;11.302;2022-11-20T13:35:37;97768.75;;;19.30;55.65
33163;BME280;29282;45.656;11.302;2022-11-20T13:38:12;97766.00;;;19.30;55.51
33163;BME280;29282;45.656;11.302;2022-11-20T13:41:04;97762.47;;;19.29;55.69
33163;BME280;29282;45.656;11.302;2022-11-20T13:43:49;97764.41;;;19.29;55.73
33163;BME280;29282;45.656;11.302;2022-11-20T13:46:15;97764.78;;;19.27;55.55
33163;BME280;29282;45.656;11.302;2022-11-20T13:48:43;97757.34;;;19.28;55.68
33163;BME280;29282;45.656;11.302;2022-11-20T13:57:02;97748.31;;;19.27;55.57
33163;BME280;29282;45.656;11.302;2022-11-20T14:02:26;97758.84;;;19.25;55.57
33163;BME280;29282;45.656;11.302;2022-11-20T14:04:54;97758.03;;;19.24;55.62
33163;BME280;29282;45.656;11.302;2022-11-20T14:07:31;97761.91;;;19.23;55.62
33163;BME280;29282;45.656;11.302;2022-11-20T14:09:58;97758.84;;;19.25;55.67
33163;BME280;29282;45.656;11.302;2022-11-20T14:12:29;97763.88;;;19.23;55.65
33163;BME280;29282;45.656;11.302;2022-11-20T14:14:55;97765.03;;;19.22;55.61
33163;BME280;29282;45.656;11.302;2022-11-20T14:17:30;97767.00;;;19.21;55.66
33163;BME280;29282;45.656;11.302;2022-11-20T14:20:02;97765.41;;;19.20;55.75
33163;BME280;29282;45.656;11.302;2022-11-20T14:22:29;97756.34;;;19.20;55.81
33163;BME280;29282;45.656;11.302;2022-11-20T14:25:17;97754.41;;;19.20;55.68